createdAt,value
2022-09-12T00:02:26.660Z,6.60
2022-09-12T00:04:53.585Z,5.97
2022-09-12T00:07:20.563Z,7.05
2022-09-12T00:09:47.612Z,6.97
2022-09-12T00:12:14.529Z,6.30
2022-09-12T00:14:41.538Z,6.35
2022-09-12T00:17:08.470Z,7.00
2022-09-12T00:19:35.604Z,6.35
2022-09-12T00:22:02.581Z,6.10
2022-09-12T00:24:29.499Z,6.68
2022-09-12T00:26:56.509Z,6.80
2022-09-12T00:29:23.467Z,6.18
2022-09-12T00:31:50.576Z,6.53
2022-09-12T00:34:17.607Z,5.75
2022-09-12T00:36:44.527Z,5.65
2022-09-12T00:39:16.801Z,6.28
2022-09-12T00:41:45.827Z,6.85
2022-09-12T00:44:12.697Z,5.72
2022-09-12T00:47:04.593Z,5.63
2022-09-12T00:49:37.897Z,5.13
2022-09-12T00:52:04.780Z,5.47
2022-09-12T00:54:35.728Z,4.35
2022-09-12T00:57:05.614Z,5.57
2022-09-12T00:59:44.700Z,4.38
2022-09-12T01:02:11.791Z,5.43
2022-09-12T01:04:41.080Z,4.75
2022-09-12T01:07:08.842Z,5.53
2022-09-12T01:09:37.810Z,5.30
2022-09-12T01:12:05.301Z,6.68
2022-09-12T01:19:53.285Z,5.07
2022-09-12T01:22:36.556Z,5.85
2022-09-12T01:25:31.811Z,5.22
2022-09-12T01:28:31.501Z,5.10
2022-09-12T01:31:10.377Z,5.22
2022-09-12T01:33:55.437Z,5.32
2022-09-12T01:36:29.555Z,6.55
2022-09-12T01:39:01.601Z,4.95
2022-09-12T01:41:41.765Z,5.60
2022-09-12T01:44:37.608Z,5.68
2022-09-12T01:47:16.421Z,5.38
2022-09-12T01:49:59.461Z,5.72
2022-09-12T01:52:32.942Z,5.75
2022-09-12T01:55:13.125Z,4.90
2022-09-12T01:57:58.239Z,5.35
2022-09-12T02:00:25.815Z,5.25
2022-09-12T02:03:02.620Z,5.60
2022-09-12T02:05:58.001Z,4.72
2022-09-12T02:08:33.268Z,4.40
2022-09-12T02:11:05.801Z,5.40
2022-09-12T02:13:39.235Z,4.90
2022-09-12T02:16:12.451Z,5.53
2022-09-12T02:18:44.392Z,5.35
2022-09-12T02:21:11.969Z,4.45
2022-09-12T02:23:43.547Z,5.10
2022-09-12T02:26:20.133Z,4.13
2022-09-12T02:28:48.170Z,4.05
2022-09-12T02:31:27.415Z,4.93
2022-09-12T02:34:09.846Z,4.85
2022-09-12T02:36:52.060Z,4.43
2022-09-12T02:39:21.090Z,4.50
2022-09-12T02:41:51.696Z,4.47
2022-09-12T02:44:19.084Z,4.47
2022-09-12T02:49:19.280Z,4.60
2022-09-12T02:51:47.603Z,4.50
2022-09-12T02:54:17.130Z,4.65
2022-09-12T02:56:45.446Z,4.88
2022-09-12T02:59:16.956Z,4.68
2022-09-12T03:01:47.029Z,4.70
2022-09-12T03:04:35.584Z,5.10
2022-09-12T03:07:15.049Z,4.25
2022-09-12T03:10:02.981Z,4.88
2022-09-12T03:12:59.420Z,4.82
2022-09-12T03:15:41.546Z,5.10
2022-09-12T03:18:20.914Z,6.72
2022-09-12T03:20:55.346Z,5.68
2022-09-12T03:23:29.102Z,4.95
2022-09-12T03:26:21.410Z,6.03
2022-09-12T03:28:50.264Z,7.30
2022-09-12T03:31:19.706Z,6.35
2022-09-12T03:33:46.712Z,6.00
2022-09-12T03:36:19.186Z,5.93
2022-09-12T03:38:46.229Z,4.63
2022-09-12T03:41:13.344Z,4.45
2022-09-12T03:43:40.246Z,4.32
2022-09-12T03:46:07.607Z,4.88
2022-09-12T03:51:07.433Z,3.97
2022-09-12T03:53:34.624Z,3.33
2022-09-12T03:56:09.861Z,4.00
2022-09-12T03:58:37.525Z,4.20
2022-09-12T04:01:12.864Z,5.32
2022-09-12T04:03:40.939Z,4.72
2022-09-12T04:06:09.982Z,4.07
2022-09-12T04:08:37.568Z,4.30
2022-09-12T04:11:06.814Z,4.45
2022-09-12T04:13:35.252Z,4.72
2022-09-12T04:16:03.180Z,3.78
2022-09-12T04:18:30.186Z,4.07
2022-09-12T04:20:57.575Z,3.97
2022-09-12T04:26:00.464Z,3.13
2022-09-12T04:28:32.480Z,4.25
2022-09-12T04:31:08.064Z,3.20
2022-09-12T04:33:35.929Z,3.72
2022-09-12T04:36:07.610Z,3.00
2022-09-12T04:38:35.828Z,3.45
2022-09-12T04:41:21.059Z,3.50
2022-09-12T04:43:51.921Z,3.92
2022-09-12T04:46:22.030Z,3.80
2022-09-12T04:48:52.205Z,3.47
2022-09-12T04:51:27.721Z,4.03
2022-09-12T04:54:16.332Z,4.32
2022-09-12T04:56:46.193Z,4.90
2022-09-12T04:59:14.404Z,3.78
2022-09-12T05:01:42.447Z,4.25
2022-09-12T05:04:15.429Z,4.53
2022-09-12T05:06:43.579Z,5.78
2022-09-12T05:09:14.361Z,5.10
2022-09-12T05:14:32.409Z,4.80
2022-09-12T05:17:01.358Z,3.90
2022-09-12T05:19:30.266Z,4.68
2022-09-12T05:21:57.713Z,3.78
2022-09-12T05:26:52.189Z,3.50
2022-09-12T05:29:19.884Z,3.35
2022-09-12T05:31:52.283Z,3.78
2022-09-12T05:34:20.353Z,3.78
2022-09-12T05:36:47.478Z,3.60
2022-09-12T05:39:14.457Z,4.85
2022-09-12T05:41:41.329Z,4.78
2022-09-12T05:44:12.652Z,3.75
2022-09-12T05:46:41.367Z,3.95
2022-09-12T05:49:10.738Z,3.78
2022-09-12T05:51:41.418Z,3.22
2022-09-12T05:54:10.951Z,3.45
2022-09-12T05:56:40.273Z,3.22
2022-09-12T05:59:19.159Z,3.05
2022-09-12T06:01:46.662Z,3.22
2022-09-12T06:04:13.949Z,3.03
2022-09-12T06:06:45.210Z,4.00
2022-09-12T06:09:17.257Z,2.83
2022-09-12T06:11:45.528Z,2.83
2022-09-12T06:14:14.757Z,3.58
2022-09-12T06:16:41.941Z,3.13
2022-09-12T06:19:15.497Z,3.45
2022-09-12T06:21:42.445Z,3.85
2022-09-12T06:24:09.468Z,3.80
2022-09-12T06:26:36.916Z,3.58
2022-09-12T06:31:33.756Z,4.28
2022-09-12T06:34:06.299Z,4.07
2022-09-12T06:36:38.856Z,3.55
2022-09-12T06:39:10.896Z,3.90
2022-09-12T06:41:42.964Z,4.22
2022-09-12T06:44:29.751Z,3.97
2022-09-12T06:46:58.277Z,4.15
2022-09-12T06:49:25.220Z,3.83
2022-09-12T06:51:52.156Z,4.35
2022-09-12T06:54:19.955Z,4.00
2022-09-12T06:56:46.992Z,3.65
2022-09-12T06:59:14.227Z,3.70
2022-09-12T07:04:09.094Z,4.70
2022-09-12T07:06:38.415Z,4.25
2022-09-12T07:09:07.881Z,4.05
2022-09-12T07:11:37.969Z,3.58
2022-09-12T07:14:06.805Z,3.20
2022-09-12T07:16:36.607Z,3.05
2022-09-12T07:19:05.315Z,3.65
2022-09-12T07:21:32.904Z,2.92
2022-09-12T07:23:59.913Z,2.85
2022-09-12T07:26:29.320Z,3.95
2022-09-12T07:29:12.748Z,3.53
2022-09-12T07:31:45.226Z,2.85
2022-09-12T07:34:12.141Z,3.65
2022-09-12T07:36:39.236Z,3.00
2022-09-12T07:39:06.368Z,2.80
2022-09-12T07:41:34.114Z,2.83
2022-09-12T07:44:02.633Z,2.88
2022-09-12T07:46:31.201Z,2.85
2022-09-12T07:49:00.194Z,2.95
2022-09-12T07:51:28.892Z,3.28
2022-09-12T07:53:56.562Z,3.20
2022-09-12T07:56:29.641Z,2.53
2022-09-12T07:58:57.831Z,3.03
2022-09-12T08:01:24.804Z,2.67
2022-09-12T08:03:58.031Z,2.72
2022-09-12T08:06:26.929Z,3.75
2022-09-12T08:08:58.439Z,3.53
2022-09-12T08:11:28.040Z,3.13
2022-09-12T08:13:57.174Z,2.50
2022-09-12T08:16:27.655Z,2.55
2022-09-12T08:18:54.600Z,2.75
2022-09-12T08:21:27.173Z,3.15
2022-09-12T08:23:56.326Z,2.42
2022-09-12T08:26:23.492Z,3.28
2022-09-12T08:28:51.495Z,3.03
2022-09-12T08:31:21.136Z,3.47
2022-09-12T08:33:48.466Z,2.95
2022-09-12T08:38:50.569Z,3.60
2022-09-12T08:41:24.947Z,2.53
2022-09-12T08:44:03.867Z,2.92
2022-09-12T08:46:51.709Z,3.58
2022-09-12T08:49:35.038Z,3.33
2022-09-12T08:52:44.305Z,3.30
2022-09-12T08:55:36.624Z,3.75
2022-09-12T08:58:25.585Z,3.05
2022-09-12T09:01:24.100Z,3.38
2022-09-12T09:04:28.106Z,2.47
2022-09-12T09:06:59.286Z,3.60
2022-09-12T09:09:44.649Z,3.70
2022-09-12T09:12:25.974Z,3.88
2022-09-12T09:15:14.712Z,3.28
2022-09-12T09:17:44.935Z,3.72
2022-09-12T09:20:24.073Z,3.60
2022-09-12T09:22:53.524Z,4.03
2022-09-12T09:25:43.845Z,3.38
2022-09-12T09:28:25.565Z,2.92
2022-09-12T09:30:52.974Z,2.75
2022-09-12T09:33:26.620Z,2.83
2022-09-12T09:36:18.590Z,3.67
2022-09-12T09:39:05.957Z,3.72
2022-09-12T09:41:48.143Z,3.83
2022-09-12T09:44:15.309Z,3.25
2022-09-12T09:46:42.332Z,3.22
2022-09-12T09:49:12.740Z,3.10
2022-09-12T09:51:41.418Z,3.25
2022-09-12T09:54:17.694Z,2.33
2022-09-12T09:56:45.031Z,3.05
2022-09-12T09:59:26.260Z,2.70
2022-09-12T10:01:57.594Z,2.72
2022-09-12T10:04:27.940Z,2.22
2022-09-12T10:07:00.630Z,1.85
2022-09-12T10:09:36.173Z,1.80
2022-09-12T10:12:22.124Z,1.80
2022-09-12T10:14:58.927Z,2.20
2022-09-12T10:20:21.655Z,1.80
2022-09-12T10:22:49.541Z,1.73
2022-09-12T10:25:18.590Z,1.58
2022-09-12T10:27:57.479Z,1.45
2022-09-12T10:30:28.732Z,2.05
2022-09-12T10:33:07.292Z,1.20
2022-09-12T10:35:45.681Z,1.65
2022-09-12T10:38:26.588Z,1.70
2022-09-12T10:41:06.514Z,1.48
2022-09-12T10:43:33.525Z,1.25
2022-09-12T10:46:16.020Z,1.15
2022-09-12T10:48:45.318Z,1.27
2022-09-12T10:51:28.111Z,1.30
2022-09-12T10:54:02.007Z,1.50
2022-09-12T10:56:51.301Z,1.27
2022-09-12T10:59:20.260Z,0.93
2022-09-12T11:01:47.448Z,1.27
2022-09-12T11:04:17.342Z,1.10
2022-09-12T11:07:03.579Z,1.08
2022-09-12T11:09:54.624Z,1.33
2022-09-12T11:12:59.222Z,1.70
2022-09-12T11:16:04.158Z,1.23
2022-09-12T11:19:03.915Z,1.25
2022-09-12T11:21:46.815Z,1.25
2022-09-12T11:24:25.205Z,1.20
2022-09-12T11:27:27.702Z,0.90
2022-09-12T11:30:13.606Z,1.05
2022-09-12T11:33:08.262Z,1.40
2022-09-12T11:35:44.137Z,1.15
2022-09-12T11:38:45.285Z,1.23
2022-09-12T11:41:26.274Z,1.25
2022-09-12T11:44:02.618Z,1.35
2022-09-12T11:46:33.674Z,1.52
2022-09-12T11:49:35.785Z,1.33
2022-09-12T11:52:16.731Z,1.23
2022-09-12T11:55:08.526Z,0.65
2022-09-12T11:57:54.353Z,1.02
2022-09-12T12:00:22.613Z,0.80
2022-09-12T12:03:20.683Z,0.80
2022-09-12T12:05:55.359Z,1.05
2022-09-12T12:08:24.580Z,1.02
2022-09-12T12:11:00.861Z,1.30
2022-09-12T12:13:46.764Z,1.50
2022-09-12T12:16:27.261Z,1.17
2022-09-12T12:19:04.130Z,1.02
2022-09-12T12:21:40.192Z,0.98
2022-09-12T12:24:10.561Z,1.10
2022-09-12T12:26:40.624Z,1.20
2022-09-12T12:29:18.560Z,1.10
2022-09-12T12:32:03.634Z,1.17
2022-09-12T12:34:42.215Z,1.05
2022-09-12T12:37:21.628Z,0.88
2022-09-12T12:39:49.835Z,1.02
2022-09-12T12:42:35.226Z,1.10
2022-09-12T12:45:23.723Z,0.98
2022-09-12T12:47:57.367Z,1.08
2022-09-12T12:50:31.158Z,1.10
2022-09-12T12:53:02.891Z,0.98
2022-09-12T12:55:43.241Z,1.38
2022-09-12T12:58:36.320Z,0.80
2022-09-12T13:01:10.796Z,1.45
2022-09-12T13:03:41.339Z,1.60
2022-09-12T13:06:19.724Z,1.30
2022-09-12T13:09:00.107Z,1.20
2022-09-12T13:11:36.844Z,1.00
2022-09-12T13:16:53.822Z,1.48
2022-09-12T13:19:29.247Z,1.13
2022-09-12T13:22:00.991Z,1.13
2022-09-12T13:24:28.406Z,0.80
2022-09-12T13:26:57.561Z,0.80
2022-09-12T13:29:27.367Z,0.90
2022-09-12T13:32:02.691Z,1.27
2022-09-12T13:34:44.886Z,0.93
2022-09-12T13:37:39.200Z,1.08
2022-09-12T13:40:07.440Z,1.00
2022-09-12T13:42:52.821Z,1.00
2022-09-12T13:45:25.059Z,0.93
2022-09-12T13:47:59.036Z,0.90
2022-09-12T13:50:42.818Z,0.90
2022-09-12T13:53:16.921Z,0.88
2022-09-12T13:55:55.254Z,0.73
2022-09-12T13:58:25.589Z,0.88
2022-09-12T14:01:12.319Z,1.00
2022-09-12T14:04:11.399Z,0.80
2022-09-12T14:06:50.124Z,0.95
2022-09-12T14:09:25.266Z,0.98
2022-09-12T14:11:53.070Z,0.65
2022-09-12T14:14:33.881Z,0.80
2022-09-12T14:17:00.947Z,0.82
2022-09-12T14:19:29.126Z,0.77
2022-09-12T14:21:57.597Z,0.90
2022-09-12T14:24:24.806Z,0.75
2022-09-12T14:26:56.776Z,1.00
2022-09-12T14:29:25.215Z,1.02
2022-09-12T14:32:05.748Z,2.65
2022-09-12T14:34:32.767Z,1.45
2022-09-12T14:37:01.041Z,1.90
2022-09-12T14:39:32.999Z,1.02
2022-09-12T14:42:13.205Z,0.70
2022-09-12T14:44:41.323Z,0.98
2022-09-12T14:47:21.431Z,1.08
2022-09-12T14:49:50.058Z,1.55
2022-09-12T14:52:33.329Z,3.13
2022-09-12T14:55:23.895Z,1.35
2022-09-12T14:58:22.822Z,0.80
2022-09-12T15:01:03.775Z,1.27
2022-09-12T15:03:34.402Z,0.80
2022-09-12T15:06:03.763Z,1.10
2022-09-12T15:08:32.207Z,1.35
2022-09-12T15:11:00.226Z,0.70
2022-09-12T15:13:30.187Z,0.98
2022-09-12T15:15:58.984Z,0.90
2022-09-12T15:18:28.708Z,1.05
2022-09-12T15:21:05.387Z,0.90
2022-09-12T15:26:00.409Z,1.05
2022-09-12T15:28:27.923Z,0.68
2022-09-12T15:30:57.002Z,1.02
2022-09-12T15:33:25.772Z,0.80
2022-09-12T15:35:53.626Z,1.00
2022-09-12T15:38:25.777Z,0.75
2022-09-12T15:40:54.451Z,1.00
2022-09-12T15:43:26.260Z,0.63
2022-09-12T15:45:53.428Z,0.70
2022-09-12T15:48:21.072Z,0.90
2022-09-12T15:50:48.442Z,0.68
2022-09-12T15:53:16.691Z,0.80
2022-09-12T15:55:44.181Z,0.63
2022-09-12T15:58:11.337Z,0.90
2022-09-12T16:00:38.788Z,0.88
2022-09-12T16:03:06.397Z,1.08
2022-09-12T16:05:36.711Z,0.63
2022-09-12T16:08:03.636Z,1.42
2022-09-12T16:10:31.321Z,0.77
2022-09-12T16:12:59.742Z,0.60
2022-09-12T16:15:26.776Z,0.70
2022-09-12T16:17:56.494Z,0.75
2022-09-12T16:20:24.383Z,0.70
2022-09-12T16:22:51.537Z,0.80
2022-09-12T16:25:18.685Z,1.30
2022-09-12T16:27:45.818Z,0.85
2022-09-12T16:30:13.812Z,1.05
2022-09-12T16:32:41.024Z,0.80
2022-09-12T16:35:08.873Z,1.08
2022-09-12T16:37:36.171Z,1.00
2022-09-12T16:40:04.742Z,0.98
2022-09-12T16:42:31.807Z,0.90
2022-09-12T16:44:58.837Z,0.77
2022-09-12T16:49:55.077Z,1.17
2022-09-12T16:54:48.941Z,1.27
2022-09-12T16:59:43.311Z,0.70
2022-09-12T17:02:14.729Z,0.93
2022-09-12T17:04:42.151Z,0.95
2022-09-12T17:07:09.279Z,1.45
2022-09-12T17:12:03.453Z,1.25
2022-09-12T17:14:30.625Z,0.75
2022-09-12T17:16:57.766Z,0.95
2022-09-12T17:22:02.309Z,0.98
2022-09-12T17:26:57.172Z,0.98
2022-09-12T17:29:24.183Z,0.68
2022-09-12T17:31:51.501Z,1.13
2022-09-12T17:34:18.468Z,1.23
2022-09-12T17:36:45.818Z,0.90
2022-09-12T17:39:13.791Z,1.38
2022-09-12T17:41:42.729Z,1.30
2022-09-12T17:44:15.103Z,1.20
2022-09-12T17:46:42.975Z,1.40
2022-09-12T17:49:15.563Z,1.05
2022-09-12T17:51:43.594Z,1.10
2022-09-12T17:54:16.146Z,1.10
2022-09-12T17:56:45.437Z,1.25
2022-09-12T17:59:16.616Z,1.20
2022-09-12T18:02:02.626Z,1.45
2022-09-12T18:04:29.810Z,1.03
2022-09-12T18:09:27.940Z,1.23
2022-09-12T18:11:55.441Z,1.15
2022-09-12T18:14:23.517Z,1.40
2022-09-12T18:16:50.832Z,1.33
2022-09-12T18:19:18.304Z,1.23
2022-09-12T18:21:45.500Z,1.42
2022-09-12T18:24:12.572Z,1.83
2022-09-12T18:26:39.712Z,1.75
2022-09-12T18:31:34.288Z,1.83
2022-09-12T18:34:02.854Z,1.48
2022-09-12T18:36:30.815Z,2.45
2022-09-12T18:38:59.680Z,1.45
2022-09-12T18:41:28.879Z,1.67
2022-09-12T18:43:57.643Z,1.45
2022-09-12T18:46:26.122Z,1.58
2022-09-12T18:48:55.515Z,1.55
2022-09-12T18:51:25.678Z,1.52
2022-09-12T18:53:54.843Z,1.50
2022-09-12T18:56:23.745Z,1.70
2022-09-12T18:58:55.187Z,1.48
2022-09-12T19:01:24.869Z,1.30
2022-09-12T19:03:53.187Z,2.03
2022-09-12T19:06:22.898Z,1.50
2022-09-12T19:08:51.495Z,1.70
2022-09-12T19:11:20.075Z,1.70
2022-09-12T19:13:49.055Z,1.63
2022-09-12T19:16:21.816Z,1.50
2022-09-12T19:18:49.869Z,1.58
2022-09-12T19:21:25.046Z,1.42
2022-09-12T19:23:53.718Z,1.65
2022-09-12T19:26:21.717Z,1.63
2022-09-12T19:28:49.443Z,1.40
2022-09-12T19:31:21.758Z,1.60
2022-09-12T19:33:49.752Z,1.60
2022-09-12T19:36:43.365Z,1.17
2022-09-12T19:39:07.498Z,1.30
2022-09-12T19:41:35.140Z,1.35
2022-09-12T19:44:02.341Z,1.17
2022-09-12T19:51:26.391Z,1.20
2022-09-12T19:53:53.712Z,1.42
2022-09-12T19:58:53.506Z,1.40
2022-09-12T20:01:25.124Z,1.80
2022-09-12T20:03:55.075Z,1.70
2022-09-12T20:06:22.591Z,1.00
2022-09-12T20:08:49.786Z,1.50
2022-09-12T20:13:46.158Z,1.40
2022-09-12T20:16:33.749Z,1.80
2022-09-12T20:19:07.151Z,1.10
2022-09-12T20:21:36.006Z,1.40
2022-09-12T20:24:10.219Z,1.52
2022-09-12T20:26:37.320Z,1.45
2022-09-12T20:29:05.481Z,1.50
2022-09-12T20:31:33.334Z,1.40
2022-09-12T20:34:00.495Z,1.42
2022-09-12T20:36:27.800Z,1.08
2022-09-12T20:41:29.342Z,1.25
2022-09-12T20:43:56.959Z,1.73
2022-09-12T20:46:28.218Z,1.02
2022-09-12T20:48:55.854Z,1.30
2022-09-12T20:51:24.522Z,1.15
2022-09-12T20:53:55.122Z,1.63
2022-09-12T20:56:28.511Z,1.92
2022-09-12T20:58:55.828Z,1.27
2022-09-12T21:03:50.423Z,1.38
2022-09-12T21:06:17.727Z,1.15
2022-09-12T21:08:46.268Z,1.17
2022-09-12T21:11:14.176Z,1.35
2022-09-12T21:13:41.135Z,1.20
2022-09-12T21:16:13.727Z,1.10
2022-09-12T21:18:41.417Z,1.58
2022-09-12T21:21:10.338Z,1.48
2022-09-12T21:23:37.514Z,1.10
2022-09-12T21:30:58.325Z,1.50
2022-09-12T21:33:25.763Z,1.35
2022-09-12T21:35:52.708Z,1.20
2022-09-12T21:38:20.589Z,1.38
2022-09-12T21:40:47.958Z,1.35
2022-09-12T21:43:15.313Z,1.30
2022-09-12T21:45:42.235Z,1.10
2022-09-12T21:48:09.237Z,1.05
2022-09-12T21:50:36.133Z,1.17
2022-09-12T21:53:03.080Z,1.58
2022-09-12T21:55:30.193Z,1.25
2022-09-12T21:57:57.434Z,1.20
2022-09-12T22:07:48.201Z,1.42
2022-09-12T22:10:15.236Z,1.45
2022-09-12T22:12:46.026Z,1.98
2022-09-12T22:15:39.055Z,1.02
2022-09-12T22:18:00.976Z,1.00
2022-09-12T22:20:27.937Z,1.33
2022-09-12T22:23:13.453Z,1.52
2022-09-12T22:25:40.700Z,1.65
2022-09-12T22:30:34.467Z,0.90
2022-09-12T22:33:01.393Z,1.10
2022-09-12T22:35:28.434Z,1.20
2022-09-12T22:37:55.380Z,1.35
2022-09-12T22:40:22.489Z,0.98
2022-09-12T22:42:54.991Z,1.20
2022-09-12T22:45:22.104Z,1.10
2022-09-12T22:47:48.989Z,1.20
2022-09-12T22:50:16.012Z,1.50
2022-09-12T22:52:42.893Z,1.70
2022-09-12T22:55:09.927Z,1.27
2022-09-12T22:57:37.706Z,1.40
2022-09-12T23:00:08.888Z,1.20
2022-09-12T23:02:35.978Z,1.15
2022-09-12T23:05:03.385Z,1.42
2022-09-12T23:07:30.348Z,1.17
2022-09-12T23:09:57.241Z,1.35
2022-09-12T23:12:24.195Z,1.17
2022-09-12T23:14:51.148Z,1.30
2022-09-12T23:17:18.141Z,1.10
2022-09-12T23:19:45.263Z,1.17
2022-09-12T23:22:12.192Z,1.10
2022-09-12T23:24:39.158Z,0.90
2022-09-12T23:27:06.203Z,1.30
2022-09-12T23:29:35.222Z,1.25
2022-09-12T23:32:06.664Z,0.90
2022-09-12T23:34:33.906Z,1.20
2022-09-12T23:39:27.872Z,1.25
2022-09-12T23:41:54.989Z,1.08
2022-09-12T23:44:21.865Z,1.02
2022-09-12T23:46:48.750Z,1.00
2022-09-12T23:49:15.699Z,1.30
2022-09-12T23:51:42.612Z,1.10
2022-09-12T23:54:09.501Z,1.10
2022-09-12T23:56:36.423Z,1.23
2022-09-12T23:59:03.403Z,1.00
